VSV803 UACC-LKPR
Flight info
| Callsign | VSV803 |
|---|---|
| Flight time | N/A |
| Altitude | 32000 |
| Route | K0850F320 DIDAL L994 TITUR N985 ORTIM L158 IRGOS T613 DOGOB M864 ELMOD L4 TOKNU T288 STAPA M869 OPOKA/N0451F320 DCT VETAS DCT ODLIT DCT VAKIR DCT KRAKI/K0832F320 M159 GOLAD/N0448F320 DCT LATAG P861 RASAN DCT ASTEL DCT GOLOP |
| Aircraft | B738/M-SDE2E3FGHIRWXY/LB1 |
Departure
| Time | 2026-04-22 14:01 |
|---|---|
| Airport | Nursultan Nazarbayev International Airport (UACC) |
Arrival
| Time | N/A |
|---|---|
| Airport | Václav Havel Airport Prague (LKPR) |
| Time | Latitude | Longitude | Altitude | Speed | Heading |
|---|---|---|---|---|---|
| 2026-04-22 13:45 | 51.02802 | 71.46545 | 1163 ft | 0 kts | 315° |
| 2026-04-22 13:46 | 51.02797 | 71.46553 | 1163 ft | 2 kts | 315° |
| 2026-04-22 13:46 | 51.02783 | 71.46575 | 1160 ft | 3 kts | 315° |
| 2026-04-22 13:46 | 51.02769 | 71.46596 | 1161 ft | 3 kts | 311° |
| 2026-04-22 13:47 | 51.02759 | 71.46621 | 1163 ft | 3 kts | 275° |
| 2026-04-22 13:47 | 51.02762 | 71.46649 | 1161 ft | 3 kts | 238° |
| 2026-04-22 13:47 | 51.02772 | 71.46671 | 1159 ft | 1 kts | 224° |
| 2026-04-22 13:47 | 51.02774 | 71.46673 | 1160 ft | 0 kts | 224° |
| 2026-04-22 13:51 | 51.02773 | 71.46673 | 1159 ft | 0 kts | 224° |
| 2026-04-22 13:51 | 51.02773 | 71.46672 | 1159 ft | 0 kts | 224° |
| 2026-04-22 13:53 | 51.02772 | 71.46671 | 1159 ft | 0 kts | 224° |
| 2026-04-22 13:54 | 51.02774 | 71.46674 | 1163 ft | 2 kts | 224° |
| 2026-04-22 13:54 | 51.02775 | 71.46676 | 1163 ft | 0 kts | 224° |
| 2026-04-22 13:55 | 51.02775 | 71.46675 | 1163 ft | 0 kts | 223° |
| 2026-04-22 13:56 | 51.02776 | 71.46676 | 1163 ft | 0 kts | 223° |
| 2026-04-22 13:56 | 51.02770 | 71.46668 | 1163 ft | 0 kts | 223° |
| 2026-04-22 13:56 | 51.02746 | 71.46633 | 1163 ft | 8 kts | 220° |
| 2026-04-22 13:56 | 51.02696 | 71.46640 | 1163 ft | 8 kts | 139° |
| 2026-04-22 13:57 | 51.02659 | 71.46700 | 1163 ft | 7 kts | 133° |
| 2026-04-22 13:57 | 51.02655 | 71.46776 | 1163 ft | 8 kts | 62° |
| 2026-04-22 13:57 | 51.02704 | 71.46856 | 1163 ft | 13 kts | 44° |
| 2026-04-22 13:57 | 51.02780 | 71.46974 | 1163 ft | 18 kts | 44° |
| 2026-04-22 13:58 | 51.02878 | 71.47127 | 1163 ft | 22 kts | 44° |
| 2026-04-22 13:58 | 51.02995 | 71.47310 | 1163 ft | 25 kts | 44° |
| 2026-04-22 13:58 | 51.03123 | 71.47509 | 1163 ft | 25 kts | 45° |
| 2026-04-22 13:58 | 51.03245 | 71.47698 | 1163 ft | 24 kts | 45° |
| 2026-04-22 13:59 | 51.03354 | 71.47868 | 1163 ft | 16 kts | 44° |
| 2026-04-22 13:59 | 51.03420 | 71.47990 | 1162 ft | 14 kts | 64° |
| 2026-04-22 13:59 | 51.03430 | 71.48140 | 1163 ft | 14 kts | 90° |
| 2026-04-22 13:59 | 51.03419 | 71.48283 | 1162 ft | 13 kts | 123° |
| 2026-04-22 14:00 | 51.03358 | 71.48334 | 1161 ft | 7 kts | 205° |
| 2026-04-22 14:00 | 51.03345 | 71.48319 | 1164 ft | 0 kts | 222° |
| 2026-04-22 14:00 | 51.03260 | 71.48187 | 1164 ft | 47 kts | 224° |
| 2026-04-22 14:00 | 51.02858 | 71.47561 | 1165 ft | 111 kts | 224° |
| 2026-04-22 14:01 | 51.02185 | 71.46509 | 1161 ft | 163 kts | 224° |
| 2026-04-22 14:01 | 51.01291 | 71.45104 | 1436 ft | 186 kts | 225° |
| 2026-04-22 14:01 | 51.00403 | 71.43701 | 2322 ft | 174 kts | 224° |
| 2026-04-22 14:01 | 50.99563 | 71.42376 | 3095 ft | 168 kts | 224° |
| 2026-04-22 14:02 | 50.98721 | 71.41075 | 3586 ft | 172 kts | 224° |
| 2026-04-22 14:02 | 50.97856 | 71.39750 | 4116 ft | 172 kts | 224° |
| 2026-04-22 14:02 | 50.96993 | 71.38423 | 4583 ft | 179 kts | 225° |
| 2026-04-22 14:02 | 50.96081 | 71.36916 | 4797 ft | 199 kts | 236° |
| 2026-04-22 14:03 | 50.95734 | 71.34754 | 4911 ft | 215 kts | 277° |
| 2026-04-22 14:03 | 50.96044 | 71.32333 | 5055 ft | 233 kts | 281° |
| 2026-04-22 14:03 | 50.96393 | 71.29744 | 5297 ft | 247 kts | 281° |
| 2026-04-22 14:03 | 50.96764 | 71.26960 | 5482 ft | 266 kts | 281° |
| 2026-04-22 14:04 | 50.97149 | 71.24050 | 6064 ft | 271 kts | 281° |
| 2026-04-22 14:04 | 50.97559 | 71.21131 | 6763 ft | 271 kts | 287° |
| 2026-04-22 14:04 | 50.98282 | 71.18371 | 7427 ft | 273 kts | 294° |
| 2026-04-22 14:04 | 50.99154 | 71.15665 | 8101 ft | 275 kts | 295° |
| 2026-04-22 14:05 | 51.00050 | 71.12981 | 8777 ft | 276 kts | 295° |
| 2026-04-22 14:05 | 51.00953 | 71.10269 | 9443 ft | 278 kts | 294° |
| 2026-04-22 14:05 | 51.02763 | 71.04733 | 10378 ft | 294 kts | 294° |
| 2026-04-22 14:06 | 51.03724 | 71.01738 | 10526 ft | 313 kts | 294° |
| 2026-04-22 14:06 | 51.04702 | 70.98671 | 10665 ft | 331 kts | 294° |
| 2026-04-22 14:06 | 51.05765 | 70.95320 | 10808 ft | 349 kts | 293° |
| 2026-04-22 14:06 | 51.06879 | 70.91795 | 10957 ft | 364 kts | 294° |
| 2026-04-22 14:07 | 51.08029 | 70.88148 | 11354 ft | 372 kts | 293° |
| 2026-04-22 14:07 | 51.09175 | 70.84508 | 11904 ft | 374 kts | 293° |
| 2026-04-22 14:07 | 51.10341 | 70.80799 | 12493 ft | 376 kts | 293° |
| 2026-04-22 14:07 | 51.11509 | 70.77068 | 13046 ft | 378 kts | 292° |
| 2026-04-22 14:08 | 51.12686 | 70.73303 | 13596 ft | 381 kts | 292° |
| 2026-04-22 14:08 | 51.13867 | 70.69513 | 14081 ft | 383 kts | 292° |
| 2026-04-22 14:08 | 51.15052 | 70.65702 | 14617 ft | 385 kts | 292° |
| 2026-04-22 14:08 | 51.16246 | 70.61856 | 15072 ft | 389 kts | 292° |
| 2026-04-22 14:09 | 51.17447 | 70.57983 | 15553 ft | 391 kts | 292° |
| 2026-04-22 14:09 | 51.18654 | 70.54081 | 16044 ft | 393 kts | 292° |
| 2026-04-22 14:09 | 51.19866 | 70.50157 | 16522 ft | 395 kts | 292° |
| 2026-04-22 14:09 | 51.21083 | 70.46212 | 16971 ft | 398 kts | 292° |
| 2026-04-22 14:10 | 51.22305 | 70.42244 | 17458 ft | 400 kts | 292° |
| 2026-04-22 14:10 | 51.23535 | 70.38241 | 17907 ft | 402 kts | 292° |
| 2026-04-22 14:10 | 51.24769 | 70.34219 | 18304 ft | 404 kts | 292° |
| 2026-04-22 14:10 | 51.26006 | 70.30184 | 18700 ft | 406 kts | 292° |
| 2026-04-22 14:11 | 51.27250 | 70.26117 | 19077 ft | 408 kts | 292° |
| 2026-04-22 14:11 | 51.28498 | 70.22030 | 19479 ft | 410 kts | 292° |
| 2026-04-22 14:11 | 51.29750 | 70.17923 | 19849 ft | 413 kts | 292° |
| 2026-04-22 14:11 | 51.30992 | 70.13841 | 20236 ft | 415 kts | 291° |
| 2026-04-22 14:12 | 51.32252 | 70.09697 | 20631 ft | 416 kts | 291° |
| 2026-04-22 14:12 | 51.33517 | 70.05527 | 21000 ft | 417 kts | 291° |
| 2026-04-22 14:12 | 51.34785 | 70.01337 | 21350 ft | 420 kts | 291° |
| 2026-04-22 14:12 | 51.36008 | 69.97291 | 21681 ft | 422 kts | 291° |
| 2026-04-22 14:13 | 51.37286 | 69.93057 | 22017 ft | 423 kts | 291° |
| 2026-04-22 14:13 | 51.38568 | 69.88801 | 22366 ft | 425 kts | 291° |
| 2026-04-22 14:13 | 51.39852 | 69.84528 | 22706 ft | 426 kts | 291° |
| 2026-04-22 14:13 | 51.41142 | 69.80233 | 23025 ft | 428 kts | 291° |
| 2026-04-22 14:14 | 51.42434 | 69.75918 | 23316 ft | 430 kts | 291° |
| 2026-04-22 14:14 | 51.43730 | 69.71584 | 23591 ft | 432 kts | 291° |
| 2026-04-22 14:14 | 51.45031 | 69.67227 | 23851 ft | 434 kts | 291° |
| 2026-04-22 14:14 | 51.46335 | 69.62852 | 24096 ft | 436 kts | 291° |
| 2026-04-22 14:15 | 51.47639 | 69.58467 | 24363 ft | 437 kts | 291° |
| 2026-04-22 14:15 | 51.48933 | 69.54110 | 24620 ft | 438 kts | 291° |
| 2026-04-22 14:15 | 51.50245 | 69.49682 | 24867 ft | 440 kts | 291° |
| 2026-04-22 14:15 | 51.51558 | 69.45244 | 25077 ft | 442 kts | 290° |
| 2026-04-22 14:16 | 51.52877 | 69.40776 | 25314 ft | 443 kts | 290° |
| 2026-04-22 14:16 | 51.54199 | 69.36291 | 25541 ft | 445 kts | 290° |
| 2026-04-22 14:16 | 51.55526 | 69.31780 | 25755 ft | 447 kts | 290° |
| 2026-04-22 14:16 | 51.56856 | 69.27250 | 25954 ft | 449 kts | 290° |
| 2026-04-22 14:17 | 51.58189 | 69.22701 | 26185 ft | 450 kts | 290° |
| 2026-04-22 14:17 | 51.59520 | 69.18154 | 26500 ft | 449 kts | 290° |
| 2026-04-22 14:17 | 51.60845 | 69.13619 | 26842 ft | 447 kts | 290° |
| 2026-04-22 14:17 | 51.62166 | 69.09091 | 27171 ft | 447 kts | 290° |
| 2026-04-22 14:18 | 51.63485 | 69.04554 | 27423 ft | 447 kts | 290° |
| 2026-04-22 14:18 | 51.64803 | 69.00015 | 27699 ft | 447 kts | 290° |
| 2026-04-22 14:18 | 51.66072 | 68.95634 | 28011 ft | 446 kts | 290° |
| 2026-04-22 14:18 | 51.67381 | 68.91110 | 28333 ft | 445 kts | 289° |
| 2026-04-22 14:19 | 51.68685 | 68.86593 | 28620 ft | 445 kts | 289° |
| 2026-04-22 14:19 | 51.69989 | 68.82064 | 28902 ft | 444 kts | 289° |
| 2026-04-22 14:19 | 51.71271 | 68.77607 | 29203 ft | 444 kts | 289° |
| 2026-04-22 14:19 | 51.72565 | 68.73097 | 29496 ft | 443 kts | 289° |
| 2026-04-22 14:20 | 51.75149 | 68.64066 | 29969 ft | 443 kts | 289° |
| 2026-04-22 14:20 | 51.76438 | 68.59551 | 30210 ft | 442 kts | 289° |
| 2026-04-22 14:20 | 51.77720 | 68.55051 | 30563 ft | 439 kts | 289° |
| 2026-04-22 14:21 | 51.80250 | 68.46157 | 31255 ft | 432 kts | 288° |
| 2026-04-22 14:21 | 51.81499 | 68.41744 | 31444 ft | 432 kts | 288° |
| 2026-04-22 14:22 | 51.83996 | 68.32893 | 31711 ft | 434 kts | 288° |
| 2026-04-22 14:22 | 51.85245 | 68.28450 | 31715 ft | 434 kts | 288° |
| 2026-04-22 14:23 | 51.88967 | 68.15189 | 31724 ft | 429 kts | 288° |
| 2026-04-22 14:23 | 51.91420 | 68.06406 | 31725 ft | 427 kts | 288° |
| 2026-04-22 14:24 | 51.93796 | 67.97864 | 31744 ft | 426 kts | 288° |
| 2026-04-22 14:24 | 51.96223 | 67.89101 | 31735 ft | 427 kts | 288° |
| 2026-04-22 14:25 | 51.98653 | 67.80298 | 31732 ft | 428 kts | 288° |
| 2026-04-22 14:25 | 52.01081 | 67.71466 | 31736 ft | 430 kts | 288° |
| 2026-04-22 14:26 | 52.03516 | 67.62579 | 31736 ft | 432 kts | 288° |
| 2026-04-22 14:26 | 52.05543 | 67.55156 | 31737 ft | 433 kts | 288° |
| 2026-04-22 14:27 | 52.07980 | 67.46200 | 31752 ft | 434 kts | 288° |
| 2026-04-22 14:27 | 52.10813 | 67.35748 | 31739 ft | 434 kts | 288° |
| 2026-04-22 14:28 | 52.12845 | 67.28224 | 31748 ft | 433 kts | 287° |
| 2026-04-22 14:28 | 52.15260 | 67.19246 | 31735 ft | 432 kts | 287° |
| 2026-04-22 14:29 | 52.17648 | 67.10332 | 31743 ft | 431 kts | 287° |
| 2026-04-22 14:29 | 52.20036 | 67.01382 | 31741 ft | 430 kts | 287° |
| 2026-04-22 14:30 | 52.22377 | 66.92578 | 31768 ft | 429 kts | 287° |
| 2026-04-22 14:30 | 52.24744 | 66.83635 | 31762 ft | 429 kts | 287° |
| 2026-04-22 14:31 | 52.27101 | 66.74696 | 31753 ft | 428 kts | 287° |
| 2026-04-22 14:31 | 52.29447 | 66.65766 | 31753 ft | 427 kts | 287° |
| 2026-04-22 14:32 | 52.31772 | 66.56881 | 31758 ft | 427 kts | 286° |
| 2026-04-22 14:32 | 52.34105 | 66.47930 | 31757 ft | 428 kts | 286° |
| 2026-04-22 14:33 | 52.36435 | 66.38953 | 31793 ft | 429 kts | 286° |
| 2026-04-22 14:33 | 52.38767 | 66.29930 | 31769 ft | 431 kts | 286° |
| 2026-04-22 14:34 | 52.41098 | 66.20880 | 31756 ft | 432 kts | 286° |
| 2026-04-22 14:34 | 52.43431 | 66.11785 | 31759 ft | 433 kts | 286° |
| 2026-04-22 14:35 | 52.45743 | 66.02739 | 31765 ft | 433 kts | 286° |
| 2026-04-22 14:35 | 52.48024 | 65.93775 | 31762 ft | 433 kts | 286° |
| 2026-04-22 14:36 | 52.50338 | 65.84644 | 31770 ft | 434 kts | 286° |
| 2026-04-22 14:36 | 52.52653 | 65.75472 | 31768 ft | 434 kts | 286° |
| 2026-04-22 14:37 | 52.54955 | 65.66313 | 31761 ft | 434 kts | 286° |
| 2026-04-22 14:37 | 52.57247 | 65.57158 | 31766 ft | 433 kts | 285° |
| 2026-04-22 14:38 | 52.59530 | 65.48004 | 31764 ft | 432 kts | 285° |
| 2026-04-22 14:38 | 52.61802 | 65.38851 | 31769 ft | 431 kts | 285° |
| 2026-04-22 14:39 | 52.64062 | 65.29710 | 31770 ft | 431 kts | 285° |
| 2026-04-22 14:39 | 52.66300 | 65.20619 | 31763 ft | 431 kts | 285° |
| 2026-04-22 14:40 | 52.69668 | 65.06866 | 31773 ft | 431 kts | 285° |
| 2026-04-22 14:40 | 52.71862 | 64.97863 | 31765 ft | 431 kts | 285° |
| 2026-04-22 14:41 | 52.74093 | 64.88666 | 31765 ft | 431 kts | 285° |
| 2026-04-22 14:41 | 52.76316 | 64.79465 | 31761 ft | 431 kts | 285° |
| 2026-04-22 14:42 | 52.78533 | 64.70251 | 31790 ft | 432 kts | 285° |
| 2026-04-22 14:42 | 52.80746 | 64.61013 | 31767 ft | 432 kts | 285° |
| 2026-04-22 14:43 | 52.82942 | 64.51812 | 31762 ft | 433 kts | 285° |
| 2026-04-22 14:43 | 52.85157 | 64.42488 | 31770 ft | 433 kts | 285° |
| 2026-04-22 14:44 | 52.87340 | 64.33254 | 31764 ft | 433 kts | 285° |
| 2026-04-22 14:44 | 52.89533 | 64.23945 | 31759 ft | 434 kts | 284° |
| 2026-04-22 14:45 | 52.91720 | 64.14616 | 31761 ft | 434 kts | 284° |
| 2026-04-22 14:45 | 52.93897 | 64.05293 | 31763 ft | 434 kts | 284° |
| 2026-04-22 14:46 | 52.96027 | 63.96130 | 31756 ft | 434 kts | 284° |
| 2026-04-22 14:46 | 52.98192 | 63.86782 | 31753 ft | 434 kts | 284° |
| 2026-04-22 14:47 | 53.00324 | 63.77528 | 31754 ft | 433 kts | 284° |
| 2026-04-22 14:47 | 53.02470 | 63.68176 | 31757 ft | 433 kts | 284° |
| 2026-04-22 14:48 | 53.04610 | 63.58808 | 31748 ft | 433 kts | 284° |
| 2026-04-22 14:48 | 53.06742 | 63.49431 | 31752 ft | 434 kts | 284° |
| 2026-04-22 14:49 | 53.08867 | 63.40046 | 31750 ft | 433 kts | 283° |
| 2026-04-22 14:49 | 53.10984 | 63.30652 | 31748 ft | 434 kts | 283° |
| 2026-04-22 14:50 | 53.13080 | 63.21313 | 31749 ft | 433 kts | 283° |
| 2026-04-22 14:50 | 53.15181 | 63.11907 | 31751 ft | 433 kts | 283° |
| 2026-04-22 14:51 | 53.17274 | 63.02495 | 31751 ft | 433 kts | 283° |
| 2026-04-22 14:51 | 53.19305 | 62.93321 | 31784 ft | 433 kts | 283° |
| 2026-04-22 14:52 | 53.21387 | 62.83875 | 31766 ft | 433 kts | 283° |
| 2026-04-22 14:52 | 53.23456 | 62.74442 | 31752 ft | 433 kts | 283° |
| 2026-04-22 14:53 | 53.25515 | 62.65014 | 31752 ft | 432 kts | 283° |
| 2026-04-22 14:53 | 53.27554 | 62.55643 | 31750 ft | 431 kts | 283° |
| 2026-04-22 14:54 | 53.29205 | 62.46127 | 31746 ft | 421 kts | 272° |
| 2026-04-22 14:54 | 53.30034 | 62.36450 | 31757 ft | 420 kts | 271° |
| 2026-04-22 14:55 | 53.30856 | 62.26781 | 31776 ft | 420 kts | 272° |
| 2026-04-22 14:55 | 53.31697 | 62.17094 | 31754 ft | 421 kts | 272° |
| 2026-04-22 14:56 | 53.32544 | 62.07390 | 31756 ft | 422 kts | 272° |
| 2026-04-22 14:56 | 53.33373 | 61.97843 | 31757 ft | 422 kts | 272° |
| 2026-04-22 14:57 | 53.34207 | 61.88120 | 31760 ft | 423 kts | 272° |
| 2026-04-22 14:57 | 53.35031 | 61.78430 | 31760 ft | 423 kts | 272° |
| 2026-04-22 14:58 | 53.35851 | 61.68682 | 31758 ft | 423 kts | 272° |
| 2026-04-22 14:58 | 53.36665 | 61.58902 | 31765 ft | 424 kts | 272° |
| 2026-04-22 14:59 | 53.37470 | 61.49133 | 31803 ft | 424 kts | 271° |
| 2026-04-22 14:59 | 53.38270 | 61.39327 | 31774 ft | 425 kts | 271° |
| 2026-04-22 15:00 | 53.39064 | 61.29518 | 31766 ft | 425 kts | 271° |
| 2026-04-22 15:00 | 53.39856 | 61.19715 | 31769 ft | 425 kts | 273° |
| 2026-04-22 15:01 | 53.41641 | 61.10149 | 31768 ft | 439 kts | 289° |
| 2026-04-22 15:01 | 53.44311 | 61.01005 | 31768 ft | 439 kts | 289° |
| 2026-04-22 15:02 | 53.46929 | 60.92023 | 31778 ft | 438 kts | 289° |
| 2026-04-22 15:02 | 53.49572 | 60.82801 | 31781 ft | 438 kts | 288° |
| 2026-04-22 15:03 | 53.52199 | 60.73546 | 31766 ft | 438 kts | 288° |
| 2026-04-22 15:03 | 53.54807 | 60.64308 | 31756 ft | 437 kts | 288° |
| 2026-04-22 15:04 | 53.57407 | 60.55067 | 31758 ft | 437 kts | 288° |
| 2026-04-22 15:04 | 53.59998 | 60.45821 | 31756 ft | 436 kts | 288° |
| 2026-04-22 15:05 | 53.62579 | 60.36576 | 31761 ft | 436 kts | 288° |
| 2026-04-22 15:05 | 53.65157 | 60.27303 | 31752 ft | 437 kts | 288° |
| 2026-04-22 15:06 | 53.67709 | 60.18091 | 31755 ft | 436 kts | 288° |
| 2026-04-22 15:06 | 53.70272 | 60.08803 | 31751 ft | 435 kts | 287° |
| 2026-04-22 15:07 | 53.72770 | 59.99707 | 31756 ft | 435 kts | 287° |
| 2026-04-22 15:07 | 53.75302 | 59.90442 | 31750 ft | 435 kts | 287° |
| 2026-04-22 15:08 | 53.77830 | 59.81156 | 31795 ft | 435 kts | 287° |
| 2026-04-22 15:08 | 53.80353 | 59.71849 | 31762 ft | 436 kts | 287° |
| 2026-04-22 15:09 | 53.82875 | 59.62511 | 31753 ft | 436 kts | 287° |
| 2026-04-22 15:09 | 53.85390 | 59.53162 | 31758 ft | 436 kts | 287° |
| 2026-04-22 15:10 | 53.87887 | 59.43845 | 31748 ft | 437 kts | 287° |
| 2026-04-22 15:10 | 53.90160 | 59.34366 | 31744 ft | 428 kts | 278° |
| 2026-04-22 15:11 | 53.91631 | 59.24612 | 31774 ft | 428 kts | 277° |
| 2026-04-22 15:11 | 53.93069 | 59.14808 | 31774 ft | 429 kts | 277° |
| 2026-04-22 15:12 | 53.94542 | 59.04984 | 31757 ft | 429 kts | 278° |
| 2026-04-22 15:12 | 53.96001 | 58.95337 | 31757 ft | 430 kts | 278° |
| 2026-04-22 15:13 | 53.96493 | 58.92073 | 31769 ft | 430 kts | 278° |